EST,Max TemperatureF,Mean TemperatureF,Min TemperatureF,Max Dew PointF,MeanDew PointF,Min DewpointF,Max Humidity, Mean Humidity, Min Humidity, Max Sea Level PressureIn, Mean Sea Level PressureIn, Min Sea Level PressureIn, Max VisibilityMiles, Mean VisibilityMiles, Min VisibilityMiles, Max Wind SpeedMPH, Mean Wind SpeedMPH, Max Gust SpeedMPH,PrecipitationIn, CloudCover, Events, WindDirDegrees
2011-11-1,50,42,33,37,34,30,100,80,58,30.31,30.25,30.20,10,8,2,9,6,,0.00,3,,189
2011-11-2,60,48,35,36,33,30,81,60,36,30.30,30.24,30.15,10,10,10,13,8,16,0.00,0,,189
2011-11-3,55,50,42,43,36,30,93,63,47,30.11,30.02,29.95,10,10,5,10,7,16,0.00,1,,216
2011-11-4,44,38,33,39,27,19,87,65,37,30.27,30.15,30.02,10,10,10,17,11,25,0.00,4,,26
2011-11-5,51,40,28,25,19,12,80,52,22,30.39,30.34,30.30,10,10,10,10,4,,0.00,0,,134
2011-11-6,57,45,33,23,19,16,52,38,25,30.36,30.30,30.23,10,10,10,14,11,20,0.00,0,,184
2011-11-7,57,48,39,43,35,25,71,57,50,30.30,30.26,30.24,10,10,10,12,8,16,0.00,7,,203
2011-11-8,66,58,51,43,39,32,71,51,32,30.26,30.19,30.12,10,10,10,15,6,22,0.00,3,,192
2011-11-9,64,54,44,45,35,30,76,52,34,30.11,29.96,29.78,10,10,9,21,9,26,0.00,2,,177
2011-11-10,48,40,33,43,30,25,87,71,56,29.93,29.86,29.80,10,10,10,22,12,30,0.00,7,,235
2011-11-11,35,32,30,30,27,25,93,82,65,29.91,29.81,29.73,10,7,0,20,10,33,0.00,8,,255
2011-11-12,51,40,30,32,27,21,75,57,44,29.97,29.91,29.84,10,10,10,16,10,23,0.00,1,,202
2011-11-13,57,52,46,43,33,27,59,48,41,29.95,29.82,29.71,10,10,10,21,13,28,0.00,5,,196
2011-11-14,59,55,51,54,49,45,94,81,59,29.78,29.69,29.54,10,9,4,21,14,30,0.00,7,Thunderstorm,207
2011-11-15,53,50,46,50,46,43,94,85,71,29.90,29.82,29.68,10,10,10,13,8,,0.00,4,,225
2011-11-16,51,42,33,46,39,23,93,79,56,29.93,29.85,29.79,10,9,3,16,6,22,0.00,5,,253
2011-11-17,35,32,28,27,22,16,86,68,44,29.99,29.94,29.89,10,8,0,23,10,32,0.00,7,,278
2011-11-18,37,32,26,21,18,16,80,61,41,30.30,30.23,30.10,10,10,7,18,11,26,0.00,3,,223
2011-11-19,50,42,33,37,24,16,71,47,39,30.17,30.10,30.00,10,10,10,18,14,26,0.00,4,,192
2011-11-20,57,47,37,46,40,32,87,72,50,30.23,30.08,29.95,10,10,10,21,14,28,0.00,8,,270
2011-11-21,44,37,30,32,28,25,87,74,49,30.32,30.25,30.23,10,10,5,10,6,,0.00,4,,20
2011-11-22,42,36,30,41,31,25,93,83,70,30.26,30.10,29.74,10,9,4,12,5,,0.00,3,,80
2011-11-23,48,40,33,48,35,30,100,90,75,30.11,29.84,29.53,10,6,0,21,11,30,0.00,6,,327
2011-11-24,46,38,30,37,34,28,93,81,62,30.22,30.16,30.12,10,8,5,16,11,22,0.00,3,,236
2011-11-25,57,46,35,36,32,30,93,66,38,30.16,30.11,30.05,10,10,6,16,11,24,0.00,0,,204
2011-11-26,53,47,41,39,33,28,71,58,44,30.15,30.11,30.04,10,10,10,10,8,,0.00,0,,188
2011-11-27,55,50,46,52,43,36,94,74,58,30.03,29.93,29.86,10,10,8,17,10,25,0.00,6,,189
2011-11-28,53,46,39,52,42,37,100,93,87,30.09,30.00,29.93,10,5,0,12,7,,0.00,7,,21
2011-11-29,60,50,37,54,46,30,94,82,63,29.91,29.68,29.52,10,10,8,24,8,30,0.00,7,,165
2011-11-30,37,34,30,30,29,25,93,82,75,29.99,29.66,29.50,10,7,1,20,13,26,0.00,7,,255